Time;durP1;ratioP1;P1;durP2;ratioP2;P2;SDS_P1;SDS_P2;PMS_P1;PMS_P2;Temp;Humidity;BMP_temperature;BMP_pressure;BME280_temperature;BME280_humidity;BME280_pressure;Samples;Min_cycle;Max_cycle;Signal;HPM_P1;HPM_P2
2021/11/14 00:01:35;;;;;;;21.88;9.77;;;;;;;4.53;100.00;95420.81;5031950;28;20046;-78
2021/11/14 00:04:01;;;;;;;18.98;9.38;;;;;;;4.54;100.00;95417.19;5034956;28;20056;-78
2021/11/14 00:06:27;;;;;;;19.20;9.35;;;;;;;4.54;100.00;95417.19;5035009;28;20064;-78
2021/11/14 00:08:53;;;;;;;21.75;10.25;;;;;;;4.54;100.00;95412.00;5036645;28;20406;-78
2021/11/14 00:11:20;;;;;;;21.42;9.05;;;;;;;4.56;100.00;95415.13;5030729;28;20049;-78
2021/11/14 00:13:48;;;;;;;15.32;8.00;;;;;;;4.64;100.00;95406.97;5031387;28;20057;-78
2021/11/14 00:16:16;;;;;;;18.85;8.45;;;;;;;4.62;100.00;95405.59;5025973;28;20041;-78
2021/11/14 00:18:44;;;;;;;15.52;7.97;;;;;;;4.60;100.00;95405.84;5026959;28;20301;-78
2021/11/14 00:21:12;;;;;;;16.85;8.57;;;;;;;4.55;100.00;95397.91;5024409;28;20053;-78
2021/11/14 00:23:37;;;;;;;17.92;8.63;;;;;;;4.51;100.00;95402.00;5030623;28;20046;-79
2021/11/14 00:26:03;;;;;;;13.85;7.43;;;;;;;4.57;100.00;95390.66;5046831;28;20037;-78
2021/11/14 00:28:29;;;;;;;13.35;7.38;;;;;;;4.65;100.00;95403.31;5031805;28;20084;-78
2021/11/14 00:30:55;;;;;;;17.30;8.60;;;;;;;4.63;100.00;95407.97;5030723;28;20491;-78
2021/11/14 00:33:21;;;;;;;16.80;8.68;;;;;;;4.48;100.00;95397.25;5031707;28;20046;-78
2021/11/14 00:35:51;;;;;;;16.75;8.02;;;;;;;4.54;100.00;95406.78;5024570;28;20042;-78
2021/11/14 00:38:16;;;;;;;14.27;7.70;;;;;;;4.59;100.00;95399.03;5021807;28;20041;-78
2021/11/14 00:40:42;;;;;;;14.93;8.15;;;;;;;4.60;100.00;95405.84;5032192;28;20041;-78
2021/11/14 00:43:08;;;;;;;17.83;8.25;;;;;;;4.64;100.00;95406.97;5031989;28;20045;-79
2021/11/14 00:45:37;;;;;;;14.88;7.50;;;;;;;4.60;100.00;95416.25;5031044;28;20042;-78
2021/11/14 00:48:04;;;;;;;14.40;7.47;;;;;;;4.68;100.00;95413.28;5032972;28;20049;-78
2021/11/14 00:50:31;;;;;;;16.52;7.10;;;;;;;4.71;100.00;95413.84;5031056;28;20049;-78
2021/11/14 00:52:59;;;;;;;12.82;6.95;;;;;;;4.78;100.00;95417.09;5031017;28;20448;-78
2021/11/14 00:55:25;;;;;;;15.50;7.25;;;;;;;4.76;100.00;95419.16;5030970;28;20038;-79
2021/11/14 00:57:51;;;;;;;13.75;7.30;;;;;;;4.63;100.00;95413.19;5018963;28;20499;-78
2021/11/14 01:00:22;;;;;;;16.10;8.07;;;;;;;4.62;100.00;95422.03;5019033;28;20041;-79
2021/11/14 01:02:48;;;;;;;16.08;7.20;;;;;;;4.78;100.00;95427.50;5031577;28;20049;-79
2021/11/14 01:05:16;;;;;;;13.05;6.78;;;;;;;4.90;100.00;95430.88;5030868;28;20128;-79
2021/11/14 01:07:43;;;;;;;13.60;6.88;;;;;;;4.78;100.00;95427.50;5032802;28;20049;-78
2021/11/14 01:10:13;;;;;;;14.07;7.25;;;;;;;4.74;100.00;95426.41;5032608;28;20076;-79
2021/11/14 01:12:39;;;;;;;12.38;6.88;;;;;;;4.71;100.00;95421.66;5032741;28;21542;-79
2021/11/14 01:15:06;;;;;;;14.80;7.57;;;;;;;4.72;100.00;95433.66;5030537;28;20041;-78
2021/11/14 01:17:33;;;;;;;13.48;7.28;;;;;;;4.69;100.00;95425.28;5024031;28;20442;-78
2021/11/14 01:19:59;;;;;;;13.15;7.10;;;;;;;4.75;100.00;95433.19;5024061;28;20060;-78
2021/11/14 01:22:25;;;;;;;15.32;7.03;;;;;;;4.72;100.00;95431.06;5029576;28;20053;-79
2021/11/14 01:24:51;;;;;;;13.88;6.85;;;;;;;4.76;100.00;95430.34;5027251;28;20080;-78
2021/11/14 01:27:17;;;;;;;14.27;7.97;;;;;;;4.65;100.00;95426.75;5026527;28;20076;-79
2021/11/14 01:29:43;;;;;;;13.32;7.70;;;;;;;4.55;100.00;95431.78;5031572;28;20525;-79
2021/11/14 01:32:09;;;;;;;16.63;8.48;;;;;;;4.52;100.00;95429.66;5031665;28;20041;-79
2021/11/14 01:34:34;;;;;;;18.52;8.73;;;;;;;4.54;100.00;95432.84;5030006;28;20169;-78
2021/11/14 01:37:00;;;;;;;21.75;8.35;;;;;;;4.51;100.00;95430.66;5032131;28;20114;-79
2021/11/14 01:39:26;;;;;;;18.80;8.35;;;;;;;4.48;100.00;95423.31;5024729;28;20491;-78
2021/11/14 01:41:51;;;;;;;15.80;8.35;;;;;;;4.54;100.00;95435.44;5026865;28;20037;-79
2021/11/14 01:44:17;;;;;;;19.80;8.93;;;;;;;4.59;100.00;95435.53;5030728;28;20049;-79
2021/11/14 01:46:44;;;;;;;17.73;8.52;;;;;;;4.60;100.00;95424.09;5022029;28;20041;-78
2021/11/14 01:49:10;;;;;;;15.70;7.53;;;;;;;4.64;100.00;95427.81;5029645;28;20710;-78
2021/11/14 01:51:36;;;;;;;15.55;6.78;;;;;;;4.65;100.00;95429.38;5026576;28;20101;-79
2021/11/14 01:54:03;;;;;;;14.02;7.47;;;;;;;4.72;100.00;95428.47;5031998;28;20100;-79
2021/11/14 01:56:29;;;;;;;15.35;7.85;;;;;;;4.60;100.00;95421.47;5029812;28;20048;-79
2021/11/14 01:58:55;;;;;;;19.15;8.13;;;;;;;4.65;100.00;95423.38;5031759;28;20045;-79
2021/11/14 02:01:30;;;;;;;15.95;7.93;;;;;;;4.65;100.00;95423.38;5024628;28;20077;-79
2021/11/14 02:04:02;;;;;;;18.90;7.75;;;;;;;4.67;100.00;95416.91;5029578;28;20045;-79
2021/11/14 02:06:29;;;;;;;16.90;7.00;;;;;;;4.71;100.00;95416.44;5028005;28;20041;-78
2021/11/14 02:08:55;;;;;;;16.63;7.95;;;;;;;4.84;100.00;95416.13;5030476;28;20045;-78
2021/11/14 02:11:22;;;;;;;14.43;7.32;;;;;;;5.00;100.00;95425.81;5031487;28;20045;-78
2021/11/14 02:13:50;;;;;;;13.00;6.22;;;;;;;5.05;100.00;95426.94;5029193;28;20041;-78
2021/11/14 02:16:20;;;;;;;12.52;6.28;;;;;;;5.02;100.00;95422.97;5024103;28;20041;-79
2021/11/14 02:18:45;;;;;;;14.52;6.15;;;;;;;4.92;100.00;95423.59;5030447;28;20042;-78
2021/11/14 02:21:12;;;;;;;15.07;6.88;;;;;;;4.78;100.00;95422.28;5031135;28;20099;-78
2021/11/14 02:23:38;;;;;;;13.70;6.07;;;;;;;4.78;100.00;95424.91;5027037;28;20075;-79
2021/11/14 02:26:04;;;;;;;14.13;7.00;;;;;;;4.84;100.00;95426.56;5028082;28;20052;-79
2021/11/14 02:28:30;;;;;;;18.80;6.82;;;;;;;4.75;100.00;95417.56;5030869;28;20053;-79
2021/11/14 02:30:57;;;;;;;16.70;7.47;;;;;;;4.69;100.00;95414.84;5032479;28;20056;-79
2021/11/14 02:33:26;;;;;;;17.30;8.07;;;;;;;4.69;100.00;95417.47;5029026;28;20049;-79
2021/11/14 02:36:03;;;;;;;14.95;7.70;;;;;;;4.63;100.00;95407.97;5020790;28;20041;-79
2021/11/14 02:38:30;;;;;;;20.30;7.95;;;;;;;4.64;100.00;95406.97;5025717;28;20037;-78
2021/11/14 02:40:57;;;;;;;15.65;8.32;;;;;;;4.66;100.00;95409.31;5030592;28;20048;-79
2021/11/14 02:43:24;;;;;;;15.23;7.40;;;;;;;4.77;100.00;95410.28;5023393;28;20057;-79
2021/11/14 02:45:49;;;;;;;15.25;7.05;;;;;;;4.82;100.00;95415.59;5025286;28;20064;-79
2021/11/14 02:48:16;;;;;;;14.27;7.40;;;;;;;4.91;100.00;95416.78;5024938;28;20065;-78
2021/11/14 02:50:44;;;;;;;13.00;6.78;;;;;;;4.85;100.00;95417.72;5022855;28;20111;-79
2021/11/14 02:53:11;;;;;;;16.25;7.72;;;;;;;4.88;100.00;95417.25;5030199;28;20084;-79
2021/11/14 02:55:39;;;;;;;11.88;6.28;;;;;;;4.90;100.00;95420.44;5030982;28;20042;-79
2021/11/14 02:58:06;;;;;;;11.80;6.70;;;;;;;4.86;100.00;95419.31;5020349;28;20045;-79
2021/11/14 03:00:36;;;;;;;16.55;7.88;;;;;;;4.74;100.00;95415.97;5030671;28;20125;-79
2021/11/14 03:03:02;;;;;;;15.50;7.20;;;;;;;4.76;100.00;95419.16;5030468;28;20044;-79
2021/11/14 03:05:27;;;;;;;17.88;7.97;;;;;;;4.77;100.00;95421.53;5029454;28;20046;-79
2021/11/14 03:07:54;;;;;;;11.98;6.47;;;;;;;4.82;100.00;95423.41;5022052;28;20099;-78
2021/11/14 03:10:25;;;;;;;15.95;8.18;;;;;;;4.88;100.00;95419.88;5016323;28;20054;-78
2021/11/14 03:13:00;;;;;;;15.45;7.97;;;;;;;4.88;100.00;95427.69;5030818;28;20076;-79
2021/11/14 03:15:27;;;;;;;14.18;7.72;;;;;;;4.86;100.00;95414.09;5029781;28;20046;-79
2021/11/14 03:17:53;;;;;;;16.35;7.70;;;;;;;4.81;100.00;95421.81;5028843;28;20038;-79
2021/11/14 03:20:19;;;;;;;17.02;8.38;;;;;;;4.79;100.00;95418.66;5020402;28;20045;-78
2021/11/14 03:22:44;;;;;;;16.05;8.43;;;;;;;4.75;100.00;95422.78;5029182;28;20096;-79
2021/11/14 03:25:10;;;;;;;20.27;8.15;;;;;;;4.68;100.00;95418.50;5015980;28;20052;-79
2021/11/14 03:27:35;;;;;;;24.63;9.75;;;;;;;4.64;100.00;95417.38;5029658;28;20049;-77
2021/11/14 03:30:04;;;;;;;25.30;10.52;;;;;;;4.67;100.00;95427.34;5029358;28;20042;-79
2021/11/14 03:32:29;;;;;;;19.52;9.95;;;;;;;4.66;100.00;95420.53;5027892;28;20084;-77
2021/11/14 03:34:55;;;;;;;23.27;10.43;;;;;;;4.73;100.00;95424.84;5027271;28;20124;-77
2021/11/14 03:37:21;;;;;;;22.65;9.60;;;;;;;4.78;100.00;95430.13;5028061;28;20072;-77
2021/11/14 03:39:47;;;;;;;27.60;9.95;;;;;;;4.80;100.00;95428.09;5026023;28;20049;-77
2021/11/14 03:42:14;;;;;;;29.75;10.80;;;;;;;4.83;100.00;95430.22;5028869;28;20402;-77
2021/11/14 03:44:41;;;;;;;24.13;9.98;;;;;;;4.84;100.00;95431.78;5028333;28;20467;-77
2021/11/14 03:47:09;;;;;;;25.58;9.65;;;;;;;4.85;100.00;95417.72;5047856;28;20095;-77
2021/11/14 03:49:35;;;;;;;20.33;9.13;;;;;;;4.87;100.00;95415.69;5024122;28;20042;-77
2021/11/14 03:52:06;;;;;;;21.27;9.00;;;;;;;4.94;100.00;95429.38;5030882;28;20048;-77
2021/11/14 03:54:32;;;;;;;21.75;8.45;;;;;;;4.91;100.00;95427.22;5030775;28;20045;-77
2021/11/14 03:56:57;;;;;;;16.75;8.43;;;;;;;4.78;100.00;95427.50;5029844;28;20049;-77
2021/11/14 03:59:23;;;;;;;21.48;9.85;;;;;;;4.61;100.00;95417.84;5023627;28;20492;-77
2021/11/14 04:01:49;;;;;;;18.83;8.88;;;;;;;4.62;100.00;95427.22;5031057;28;20052;-77
2021/11/14 04:04:14;;;;;;;18.15;8.55;;;;;;;4.66;100.00;95424.97;5030307;28;20041;-77
2021/11/14 04:06:40;;;;;;;21.40;8.77;;;;;;;4.74;100.00;95431.59;5032869;28;20414;-77
2021/11/14 04:09:05;;;;;;;20.08;8.93;;;;;;;4.75;100.00;95430.59;5032624;28;20046;-77
2021/11/14 04:11:31;;;;;;;19.98;8.80;;;;;;;4.77;100.00;95433.75;5032580;28;20105;-77
2021/11/14 04:13:56;;;;;;;20.98;9.35;;;;;;;4.74;100.00;95431.59;5027877;28;20058;-77
2021/11/14 04:16:22;;;;;;;18.00;8.90;;;;;;;4.71;100.00;95437.28;5013688;28;20041;-77
2021/11/14 04:18:47;;;;;;;19.77;8.60;;;;;;;4.72;100.00;95433.66;5031183;28;20077;-78
2021/11/14 04:21:13;;;;;;;19.98;9.98;;;;;;;4.79;100.00;95429.09;5039767;28;20644;-78
2021/11/14 04:23:39;;;;;;;21.58;9.48;;;;;;;4.74;100.00;95429.00;5031534;28;20052;-78
2021/11/14 04:26:06;;;;;;;19.13;8.95;;;;;;;4.58;100.00;95433.94;5032229;28;20056;-78
2021/11/14 04:28:32;;;;;;;23.88;9.18;;;;;;;4.55;100.00;95434.41;5031977;28;20042;-78
2021/11/14 04:30:58;;;;;;;18.50;9.00;;;;;;;4.56;100.00;95430.00;5032225;28;20056;-78
2021/11/14 04:33:23;;;;;;;20.95;9.27;;;;;;;4.55;100.00;95434.41;5023354;28;20419;-78
2021/11/14 04:35:49;;;;;;;22.50;9.43;;;;;;;4.52;100.00;95434.88;5029943;28;20411;-78
2021/11/14 04:38:16;;;;;;;20.27;8.70;;;;;;;4.56;100.00;95435.22;5031597;28;20113;-78
2021/11/14 04:40:43;;;;;;;19.77;9.10;;;;;;;4.61;100.00;95433.50;5027372;28;20045;-78
2021/11/14 04:43:11;;;;;;;21.30;9.18;;;;;;;4.65;100.00;95441.63;5025790;28;20041;-77
2021/11/14 04:45:37;;;;;;;19.50;8.77;;;;;;;4.65;100.00;95445.00;5031182;28;20458;-78
2021/11/14 04:48:04;;;;;;;23.88;10.18;;;;;;;4.63;100.00;95446.28;5025903;28;20038;-78
2021/11/14 04:50:29;;;;;;;22.17;10.02;;;;;;;4.54;100.00;95448.47;5023136;28;20052;-78
2021/11/14 04:52:55;;;;;;;25.65;9.88;;;;;;;4.51;100.00;95444.50;5030271;28;20049;-77
2021/11/14 04:55:21;;;;;;;22.45;9.38;;;;;;;4.55;100.00;95444.81;5044633;28;20056;-78
2021/11/14 04:57:51;;;;;;;22.65;9.93;;;;;;;4.60;100.00;95447.53;5027745;28;20041;-77
2021/11/14 05:00:21;;;;;;;22.67;9.40;;;;;;;4.62;100.00;95439.47;5030242;28;20414;-77
2021/11/14 05:02:47;;;;;;;19.67;9.07;;;;;;;4.62;100.00;95449.91;5022737;28;20067;-77
2021/11/14 05:05:13;;;;;;;21.23;9.55;;;;;;;4.55;100.00;95444.81;5030123;28;20042;-77
2021/11/14 05:07:38;;;;;;;23.35;9.25;;;;;;;4.50;100.00;95447.34;5031118;28;20771;-77
2021/11/14 05:10:05;;;;;;;19.20;9.48;;;;;;;4.57;100.00;95448.00;5030712;28;20056;-77
2021/11/14 05:12:31;;;;;;;21.25;9.63;;;;;;;4.52;100.00;95445.28;5030219;28;20438;-77
2021/11/14 05:14:57;;;;;;;19.98;10.43;;;;;;;4.48;100.00;95450.19;5030405;28;20045;-77
2021/11/14 05:17:22;;;;;;;29.77;10.70;;;;;;;4.39;100.00;95448.97;5029422;28;20041;-77
2021/11/14 05:19:49;;;;;;;25.70;10.77;;;;;;;4.39;100.00;95453.38;5022113;28;20132;-77
2021/11/14 05:22:15;;;;;;;28.52;11.02;;;;;;;4.32;100.00;95446.50;5023912;28;20099;-77
2021/11/14 05:24:41;;;;;;;26.23;10.82;;;;;;;4.39;100.00;95450.78;5030074;28;20045;-77
2021/11/14 05:27:06;;;;;;;23.88;9.65;;;;;;;4.45;100.00;95450.66;5029479;28;20120;-77
2021/11/14 05:29:32;;;;;;;21.85;10.20;;;;;;;4.43;100.00;95449.31;5028337;28;20059;-77
2021/11/14 05:31:58;;;;;;;24.48;10.73;;;;;;;4.45;100.00;95448.06;5026950;28;20046;-77
2021/11/14 05:34:23;;;;;;;20.40;10.32;;;;;;;4.51;100.00;95454.13;5023472;28;20565;-78
2021/11/14 05:36:49;;;;;;;24.13;10.73;;;;;;;4.49;100.00;95456.19;5008989;28;20065;-78
2021/11/14 05:39:14;;;;;;;27.75;10.70;;;;;;;4.41;100.00;95459.16;5036956;28;20049;-77
2021/11/14 05:41:40;;;;;;;21.70;10.13;;;;;;;4.48;100.00;95462.41;5021240;28;20125;-77
2021/11/14 05:44:07;;;;;;;36.33;10.80;;;;;;;4.53;100.00;95472.94;5020842;28;20041;-77
2021/11/14 05:46:33;;;;;;;25.42;10.55;;;;;;;4.52;100.00;95463.53;5030465;28;20061;-77
2021/11/14 05:48:59;;;;;;;26.02;11.45;;;;;;;4.47;100.00;95458.25;5030311;28;20053;-78
2021/11/14 05:51:25;;;;;;;30.50;11.02;;;;;;;4.45;100.00;95466.28;5031599;28;20037;-78
2021/11/14 05:53:51;;;;;;;26.02;10.82;;;;;;;4.49;100.00;95471.81;5027914;28;20095;-79
2021/11/14 05:56:16;;;;;;;28.67;11.57;;;;;;;4.58;100.00;95470.41;5030974;28;20041;-79
2021/11/14 05:58:54;;;;;;;21.92;10.75;;;;;;;4.59;100.00;95474.63;5017310;28;20034;-77
2021/11/14 06:01:39;;;;;;;28.15;10.98;;;;;;;4.61;100.00;95485.63;5024792;28;20052;-78
2021/11/14 06:04:10;;;;;;;26.08;11.35;;;;;;;4.48;100.00;95475.44;5017752;28;20056;-77
2021/11/14 06:06:36;;;;;;;32.88;12.77;;;;;;;4.55;100.00;95480.53;5030611;28;20042;-77
2021/11/14 06:09:02;;;;;;;31.45;12.60;;;;;;;4.58;100.00;95483.44;5030203;28;20630;-77
2021/11/14 06:11:28;;;;;;;33.53;13.75;;;;;;;4.62;100.00;95487.19;5031139;28;20474;-78
2021/11/14 06:13:54;;;;;;;30.20;12.18;;;;;;;4.65;100.00;95491.94;5027720;28;20083;-76
2021/11/14 06:16:20;;;;;;;33.80;12.40;;;;;;;4.76;100.00;95497.34;5031258;28;20076;-77
2021/11/14 06:18:46;;;;;;;32.95;12.68;;;;;;;4.76;100.00;95502.56;5045656;28;20047;-80
2021/11/14 06:21:13;;;;;;;34.40;12.45;;;;;;;4.79;100.00;95512.53;5029694;28;20095;-79
2021/11/14 06:23:38;;;;;;;32.58;12.80;;;;;;;4.71;100.00;95515.50;5026264;28;20458;-78
2021/11/14 06:26:04;;;;;;;33.92;12.90;;;;;;;4.73;100.00;95518.69;5030159;28;20049;-78
2021/11/14 06:28:30;;;;;;;53.35;16.60;;;;;;;4.72;100.00;95522.31;5030582;28;20056;-77
2021/11/14 06:30:56;;;;;;;49.38;17.23;;;;;;;4.76;100.00;95524.22;5030585;28;20558;-77
2021/11/14 06:33:22;;;;;;;64.43;19.52;;;;;;;4.73;100.00;95523.91;5030698;28;20468;-77
2021/11/14 06:35:48;;;;;;;56.05;19.92;;;;;;;4.73;100.00;95523.91;5028974;28;20033;-77
2021/11/14 06:38:14;;;;;;;64.93;21.10;;;;;;;4.79;100.00;95530.78;5027375;28;20037;-76
2021/11/14 06:40:40;;;;;;;71.65;21.45;;;;;;;4.76;100.00;95531.25;5017375;28;20564;-75
2021/11/14 06:43:05;;;;;;;74.30;22.58;;;;;;;4.76;100.00;95534.63;5029197;28;20044;-76
2021/11/14 06:45:31;;;;;;;81.80;24.42;;;;;;;4.78;100.00;95531.81;5019353;28;20049;-76
2021/11/14 06:47:57;;;;;;;73.68;24.02;;;;;;;4.76;100.00;95533.84;5028845;28;20081;-76
2021/11/14 06:50:23;;;;;;;88.90;25.17;;;;;;;4.77;100.00;95530.22;5028270;28;20461;-76
2021/11/14 06:52:49;;;;;;;74.88;23.88;;;;;;;4.82;100.00;95532.94;5028283;28;20402;-77
2021/11/14 06:55:17;;;;;;;75.65;23.42;;;;;;;4.82;100.00;95532.94;5027853;28;20531;-75
2021/11/14 06:57:43;;;;;;;79.97;25.30;;;;;;;4.82;100.00;95532.94;5017456;28;20467;-76
2021/11/14 07:00:12;;;;;;;80.75;25.42;;;;;;;4.86;100.00;95528.84;5028511;28;20049;-76
2021/11/14 07:02:37;;;;;;;89.53;25.98;;;;;;;4.83;100.00;95534.50;5026816;28;20120;-75
2021/11/14 07:05:05;;;;;;;86.45;26.35;;;;;;;4.82;100.00;95538.13;5024550;28;20117;-76
2021/11/14 07:07:30;;;;;;;93.32;28.23;;;;;;;4.80;100.00;95535.75;5029078;28;20054;-76
2021/11/14 07:09:56;;;;;;;88.25;26.25;;;;;;;4.81;100.00;95546.97;5029010;28;20048;-76
2021/11/14 07:12:23;;;;;;;86.43;27.77;;;;;;;4.81;100.00;95526.13;5028866;28;20091;-76
2021/11/14 07:14:50;;;;;;;76.95;26.50;;;;;;;4.83;100.00;95550.94;5032265;28;20525;-77
2021/11/14 07:17:16;;;;;;;96.93;27.38;;;;;;;4.84;100.00;95551.72;5027562;28;20067;-77
2021/11/14 07:19:42;;;;;;;92.78;28.40;;;;;;;4.86;100.00;95552.31;5022216;28;20025;-75
2021/11/14 07:22:08;;;;;;;89.53;28.95;;;;;;;4.85;100.00;95548.09;5058672;28;20030;-74
2021/11/14 07:24:34;;;;;;;90.07;27.45;;;;;;;4.79;100.00;95554.25;5053617;28;20072;-74
2021/11/14 07:27:00;;;;;;;78.95;28.98;;;;;;;4.81;100.00;95562.63;5048419;28;20033;-72
2021/11/14 07:29:26;;;;;;;88.40;28.73;;;;;;;4.80;100.00;95554.00;5056993;28;20072;-73
2021/11/14 07:31:51;;;;;;;86.30;27.50;;;;;;;4.85;100.00;95553.31;5047593;28;20029;-75
2021/11/14 07:34:17;;;;;;;87.20;27.95;;;;;;;4.85;100.00;95554.09;5043936;28;20041;-74
2021/11/14 07:36:43;;;;;;;85.70;28.70;;;;;;;4.83;100.00;95553.56;5056601;28;20060;-73
2021/11/14 07:39:08;;;;;;;76.95;27.30;;;;;;;4.88;100.00;95563.28;5057454;28;20069;-73
2021/11/14 07:41:34;;;;;;;88.25;28.42;;;;;;;4.81;100.00;95560.00;5058749;28;20037;-74
2021/11/14 07:44:00;;;;;;;81.20;27.27;;;;;;;4.81;100.00;95558.22;5057584;28;20060;-74
2021/11/14 07:46:26;;;;;;;81.68;27.60;;;;;;;4.84;100.00;95560.34;5041746;28;20120;-77
2021/11/14 07:48:53;;;;;;;78.55;25.95;;;;;;;4.87;100.00;95561.72;5023215;28;20046;-76
2021/11/14 07:51:18;;;;;;;87.47;27.98;;;;;;;4.83;100.00;95556.16;5026488;28;20072;-76
2021/11/14 07:53:44;;;;;;;74.72;28.65;;;;;;;4.88;100.00;95560.66;5017662;28;22566;-76
2021/11/14 07:56:10;;;;;;;82.57;26.42;;;;;;;4.84;100.00;95562.16;5030589;28;20422;-76
2021/11/14 07:58:35;;;;;;;77.22;27.52;;;;;;;4.85;100.00;95559.31;5022860;28;20042;-75
2021/11/14 08:01:01;;;;;;;78.25;26.80;;;;;;;4.82;100.00;95556.38;5044872;28;20575;-75
2021/11/14 08:03:31;;;;;;;81.90;26.83;;;;;;;4.89;100.00;95559.66;5023408;28;20041;-75
2021/11/14 08:05:57;;;;;;;75.85;25.42;;;;;;;4.89;100.00;95562.25;5020376;28;20289;-77
2021/11/14 08:08:23;;;;;;;73.60;26.25;;;;;;;4.85;100.00;95563.75;5022591;28;20045;-79
2021/11/14 08:10:48;;;;;;;72.80;24.73;;;;;;;4.86;100.00;95566.13;5045965;28;20415;-78
2021/11/14 08:13:14;;;;;;;70.07;24.75;;;;;;;4.89;100.00;95564.09;5033110;28;20041;-76
2021/11/14 08:15:39;;;;;;;76.45;25.50;;;;;;;4.93;100.00;95560.78;5030492;28;20046;-75
2021/11/14 08:18:05;;;;;;;69.65;25.27;;;;;;;4.96;100.00;95555.09;5029698;28;20132;-76
2021/11/14 08:20:33;;;;;;;77.82;26.23;;;;;;;4.98;100.00;95555.66;5032268;28;20510;-79
2021/11/14 08:23:00;;;;;;;75.22;24.15;;;;;;;5.03;100.00;95555.75;5026194;28;20120;-77
2021/11/14 08:25:28;;;;;;;65.43;24.55;;;;;;;4.92;100.00;95548.75;5027240;28;20049;-80
2021/11/14 08:27:53;;;;;;;62.72;24.52;;;;;;;4.89;100.00;95557.06;5027086;28;20038;-77
2021/11/14 08:30:20;;;;;;;74.15;27.08;;;;;;;4.93;100.00;95558.19;5029922;28;20056;-77
2021/11/14 08:32:46;;;;;;;76.35;28.02;;;;;;;4.84;100.00;95546.50;5026097;28;20630;-76
2021/11/14 08:35:12;;;;;;;73.80;27.90;;;;;;;4.96;100.00;95555.09;5012923;28;20037;-76
2021/11/14 08:37:38;;;;;;;70.25;27.52;;;;;;;4.92;100.00;95546.16;5024804;28;20040;-76
2021/11/14 08:40:06;;;;;;;76.97;29.45;;;;;;;4.93;100.00;95555.56;5021711;28;20429;-76
2021/11/14 08:42:32;;;;;;;76.43;28.63;;;;;;;4.99;100.00;95552.03;5021636;28;20041;-76
2021/11/14 08:44:58;;;;;;;86.43;29.20;;;;;;;5.03;100.00;95558.38;5026496;28;20052;-76
2021/11/14 08:47:23;;;;;;;78.95;27.80;;;;;;;5.00;100.00;95564.03;5027723;28;20069;-76
2021/11/14 08:49:49;;;;;;;66.47;26.55;;;;;;;5.02;100.00;95561.97;5016139;28;20257;-77
2021/11/14 08:52:15;;;;;;;73.45;28.13;;;;;;;5.08;100.00;95572.53;5031366;28;20049;-76
2021/11/14 08:54:41;;;;;;;69.38;27.50;;;;;;;4.94;100.00;95567.59;5025796;28;20672;-75
2021/11/14 08:57:07;;;;;;;82.10;29.35;;;;;;;5.05;100.00;95567.78;5023157;28;20621;-75
2021/11/14 08:59:33;;;;;;;92.72;30.95;;;;;;;5.12;100.00;95563.22;5026745;28;20508;-77
2021/11/14 09:01:59;;;;;;;76.35;27.02;;;;;;;5.03;100.00;95568.78;5027749;28;20068;-76
2021/11/14 09:04:25;;;;;;;77.45;27.70;;;;;;;5.09;100.00;95563.69;5026300;28;22312;-76
2021/11/14 09:06:50;;;;;;;72.75;28.50;;;;;;;5.08;100.00;95556.88;5025544;28;20044;-77
2021/11/14 09:09:16;;;;;;;79.22;28.83;;;;;;;5.09;100.00;95561.06;5025497;28;20684;-76
2021/11/14 09:11:44;;;;;;;75.10;27.10;;;;;;;5.02;100.00;95569.03;5025745;28;20037;-77
2021/11/14 09:14:10;;;;;;;86.53;30.00;;;;;;;5.02;100.00;95569.81;5024158;28;20063;-77
2021/11/14 09:16:37;;;;;;;90.78;29.75;;;;;;;5.10;100.00;95575.69;5026864;28;20088;-77
2021/11/14 09:19:05;;;;;;;78.03;28.08;;;;;;;5.16;100.00;95580.00;5030667;28;20061;-76
2021/11/14 09:21:31;;;;;;;71.57;27.67;;;;;;;5.14;100.00;95576.81;5030260;28;20037;-76
2021/11/14 09:23:56;;;;;;;78.72;28.08;;;;;;;5.12;100.00;95589.31;5028261;28;20675;-76
2021/11/14 09:26:22;;;;;;;75.68;27.52;;;;;;;5.17;100.00;95586.78;5027940;28;20121;-76
2021/11/14 09:28:48;;;;;;;76.97;28.88;;;;;;;5.14;100.00;95588.06;5029815;28;20046;-76
2021/11/14 09:31:14;;;;;;;70.28;27.00;;;;;;;5.19;100.00;95584.75;5045420;28;20095;-76
2021/11/14 09:33:40;;;;;;;74.07;26.77;;;;;;;5.24;100.00;95582.22;5029537;28;20045;-76
2021/11/14 09:36:08;;;;;;;73.95;28.30;;;;;;;5.17;100.00;95581.56;5028198;28;20128;-77
2021/11/14 09:38:34;;;;;;;74.50;26.45;;;;;;;5.15;100.00;95573.19;5027223;28;20310;-77
2021/11/14 09:41:08;;;;;;;66.38;24.95;;;;;;;5.15;100.00;95583.63;5023281;28;20521;-77
2021/11/14 09:43:36;;;;;;;73.68;25.88;;;;;;;5.24;100.00;95592.63;5017616;28;20089;-76
2021/11/14 09:46:02;;;;;;;72.28;25.23;;;;;;;5.25;100.00;95577.78;5024676;28;20052;-77
2021/11/14 09:48:28;;;;;;;66.13;24.27;;;;;;;5.28;100.00;95585.16;5030760;28;20396;-76
2021/11/14 09:50:54;;;;;;;64.47;23.70;;;;;;;5.27;100.00;95576.53;5033110;28;20048;-78
2021/11/14 09:53:25;;;;;;;52.90;21.65;;;;;;;5.26;100.00;95582.78;5028964;28;20047;-76
2021/11/14 09:55:50;;;;;;;62.15;23.75;;;;;;;5.28;100.00;95578.09;5030377;28;20422;-76
2021/11/14 09:58:16;;;;;;;65.75;23.85;;;;;;;5.26;100.00;95574.16;5029360;28;20095;-76
2021/11/14 10:00:42;;;;;;;59.85;22.88;;;;;;;5.31;100.00;95572.41;5051064;28;20041;-77
2021/11/14 10:03:08;;;;;;;56.22;21.92;;;;;;;5.41;100.00;95581.47;5032416;28;20046;-78
2021/11/14 10:05:35;;;;;;;52.08;20.42;;;;;;;5.44;100.00;95581.00;5022080;28;20265;-78
2021/11/14 10:08:05;;;;;;;50.90;21.05;;;;;;;5.32;100.00;95579.22;5032202;28;20048;-76
2021/11/14 10:10:38;;;;;;;52.00;20.38;;;;;;;5.32;100.00;95579.22;5031234;28;20452;-76
2021/11/14 10:13:17;;;;;;;53.58;20.67;;;;;;;5.29;100.00;95579.69;5031233;28;20045;-77
2021/11/14 10:15:44;;;;;;;55.78;21.20;;;;;;;5.41;100.00;95571.81;5031229;28;20046;-78
2021/11/14 10:18:10;;;;;;;52.65;19.52;;;;;;;5.23;100.00;95570.22;5030977;28;20045;-77
2021/11/14 10:20:36;;;;;;;49.30;20.17;;;;;;;5.34;100.00;95576.38;5030777;28;20461;-77
2021/11/14 10:23:06;;;;;;;49.67;19.73;;;;;;;5.26;100.00;95572.34;5030728;28;20442;-77
2021/11/14 10:25:32;;;;;;;41.45;15.88;;;;;;;5.50;100.00;95574.81;5020604;28;20439;-79
2021/11/14 10:28:01;;;;;;;45.92;18.70;;;;;;;5.49;100.00;95578.47;5025290;28;20041;-76
2021/11/14 10:30:28;;;;;;;30.50;13.10;;;;;;;5.53;100.00;95574.34;5027753;28;20110;-77
2021/11/14 10:32:58;;;;;;;29.58;11.45;;;;;;;5.58;100.00;95578.91;5029063;28;20095;-76
2021/11/14 10:35:25;;;;;;;27.83;11.57;;;;;;;5.53;100.00;95580.38;5022331;28;20041;-76
2021/11/14 10:37:51;;;;;;;25.25;10.93;;;;;;;5.32;100.00;95579.22;5045015;28;20045;-76
2021/11/14 10:40:24;;;;;;;29.73;11.60;;;;;;;5.25;100.00;95581.19;5027186;28;20071;-76
2021/11/14 10:42:57;;;;;;;30.85;11.75;;;;;;;5.23;100.00;95580.63;5026734;28;20048;-76
2021/11/14 10:45:24;;;;;;;30.02;12.07;;;;;;;5.32;100.00;95575.84;5028348;28;20034;-77
2021/11/14 10:47:58;;;;;;;26.00;11.43;;;;;;;5.27;100.00;95566.09;5015173;28;20561;-80
2021/11/14 10:50:31;;;;;;;30.48;12.48;;;;;;;5.40;100.00;95579.88;5027689;28;20780;-76
2021/11/14 10:53:00;;;;;;;23.58;11.15;;;;;;;5.56;100.00;95571.28;5030903;28;20065;-77
2021/11/14 10:55:30;;;;;;;32.65;12.63;;;;;;;5.41;100.00;95565.81;5021734;28;20049;-77
2021/11/14 10:57:56;;;;;;;31.65;11.57;;;;;;;5.29;100.00;95574.47;5031505;28;20053;-77
2021/11/14 11:00:27;;;;;;;31.77;12.77;;;;;;;5.35;100.00;95565.72;5027681;28;20518;-78
2021/11/14 11:02:53;;;;;;;29.42;12.93;;;;;;;5.21;100.00;95577.47;5026163;28;20070;-77
2021/11/14 11:05:22;;;;;;;30.65;11.90;;;;;;;5.38;100.00;95583.50;5022466;28;20049;-77
2021/11/14 11:08:06;;;;;;;28.63;13.15;;;;;;;5.19;100.00;95576.91;5027490;28;20049;-77
2021/11/14 11:10:40;;;;;;;29.63;11.45;;;;;;;5.36;100.00;95582.97;5025732;28;20099;-79
2021/11/14 11:13:08;;;;;;;30.52;13.30;;;;;;;5.16;100.00;95575.56;5023323;28;20172;-77
2021/11/14 11:15:48;;;;;;;32.78;14.30;;;;;;;5.08;100.00;95572.53;5025453;28;20112;-77
2021/11/14 11:18:19;;;;;;;28.50;13.30;;;;;;;5.09;100.00;95576.72;5040996;28;20691;-78
2021/11/14 11:20:49;;;;;;;33.17;14.23;;;;;;;5.04;100.00;95577.41;5027605;28;20038;-77